createdAt,value
2019-05-05T00:02:39.530Z,100.00
2019-05-05T00:05:35.696Z,100.00
2019-05-05T00:08:26.309Z,100.00
2019-05-05T00:11:36.616Z,100.00
2019-05-05T00:14:44.227Z,100.00
2019-05-05T00:17:34.669Z,100.00
2019-05-05T00:20:25.163Z,100.00
2019-05-05T00:23:16.805Z,100.00
2019-05-05T00:26:07.352Z,100.00
2019-05-05T00:28:58.692Z,100.00
2019-05-05T00:31:49.166Z,100.00
2019-05-05T00:34:39.660Z,100.00
2019-05-05T00:37:30.142Z,100.00
2019-05-05T00:40:20.543Z,100.00
2019-05-05T00:43:10.931Z,100.00
2019-05-05T00:46:09.072Z,100.00
2019-05-05T00:48:59.371Z,100.00
2019-05-05T00:51:49.919Z,100.00
2019-05-05T00:54:40.632Z,100.00
2019-05-05T00:57:31.146Z,100.00
2019-05-05T01:00:44.258Z,100.00
2019-05-05T01:03:34.859Z,100.00
2019-05-05T01:06:27.461Z,100.00
2019-05-05T01:09:19.328Z,100.00
2019-05-05T01:12:10.188Z,100.00
2019-05-05T01:15:00.322Z,100.00
2019-05-05T01:17:50.858Z,100.00
2019-05-05T01:20:41.285Z,100.00
2019-05-05T01:23:34.795Z,100.00
2019-05-05T01:26:24.947Z,100.00
2019-05-05T01:29:15.687Z,100.00
2019-05-05T01:32:08.564Z,100.00
2019-05-05T01:34:58.904Z,100.00
2019-05-05T01:37:55.185Z,100.00
2019-05-05T01:41:25.259Z,100.00
2019-05-05T01:44:15.839Z,100.00
2019-05-05T01:47:06.279Z,100.00
2019-05-05T01:49:57.195Z,100.00
2019-05-05T01:52:48.392Z,100.00
2019-05-05T01:55:38.933Z,100.00
2019-05-05T01:58:29.269Z,100.00
2019-05-05T02:01:19.468Z,100.00
2019-05-05T02:04:09.607Z,100.00
2019-05-05T02:07:00.107Z,100.00
2019-05-05T02:09:50.808Z,100.00
2019-05-05T02:12:41.459Z,100.00
2019-05-05T02:15:34.184Z,100.00
2019-05-05T02:18:25.346Z,100.00
2019-05-05T02:21:15.850Z,100.00
2019-05-05T02:24:08.684Z,100.00
2019-05-05T02:26:59.306Z,100.00
2019-05-05T02:29:59.629Z,100.00
2019-05-05T02:32:57.888Z,100.00
2019-05-05T02:35:48.118Z,100.00
2019-05-05T02:38:38.568Z,100.00
2019-05-05T02:41:29.031Z,100.00
2019-05-05T02:44:19.337Z,100.00
2019-05-05T02:47:25.682Z,100.00
2019-05-05T02:50:15.723Z,100.00
2019-05-05T02:53:06.377Z,100.00
2019-05-05T02:55:59.957Z,100.00
2019-05-05T02:58:50.183Z,100.00
2019-05-05T03:01:56.258Z,100.00
2019-05-05T03:04:46.951Z,100.00
2019-05-05T03:07:37.648Z,100.00
2019-05-05T03:10:27.892Z,100.00
2019-05-05T03:13:18.152Z,100.00
2019-05-05T03:16:16.421Z,100.00
2019-05-05T03:19:07.178Z,100.00
2019-05-05T03:21:57.499Z,100.00
2019-05-05T03:24:48.102Z,100.00
2019-05-05T03:27:38.583Z,100.00
2019-05-05T03:30:29.813Z,100.00
2019-05-05T03:33:19.954Z,100.00
2019-05-05T03:36:10.449Z,100.00
2019-05-05T03:39:00.704Z,100.00
2019-05-05T03:42:03.634Z,100.00
2019-05-05T03:45:06.853Z,100.00
2019-05-05T03:47:57.336Z,100.00
2019-05-05T03:50:47.798Z,100.00
2019-05-05T03:53:38.098Z,100.00
2019-05-05T03:56:28.520Z,100.00
2019-05-05T03:59:19.018Z,100.00
2019-05-05T04:02:37.465Z,100.00
2019-05-05T04:05:33.992Z,100.00
2019-05-05T04:08:24.416Z,100.00
2019-05-05T04:11:14.828Z,100.00
2019-05-05T04:14:05.291Z,100.00
2019-05-05T04:17:18.760Z,100.00
2019-05-05T04:20:30.238Z,100.00
2019-05-05T04:23:20.744Z,100.00
2019-05-05T04:26:10.945Z,100.00
2019-05-05T04:29:04.667Z,100.00
2019-05-05T04:31:54.015Z,100.00
2019-05-05T04:34:44.898Z,100.00
2019-05-05T04:37:35.236Z,100.00
2019-05-05T04:40:26.436Z,100.00
2019-05-05T04:43:16.848Z,100.00
2019-05-05T04:46:07.262Z,100.00
2019-05-05T04:49:04.457Z,100.00
2019-05-05T04:51:55.446Z,100.00
2019-05-05T04:54:50.733Z,100.00
2019-05-05T04:57:40.939Z,100.00
2019-05-05T05:00:31.381Z,100.00
2019-05-05T05:03:40.273Z,100.00
2019-05-05T05:06:40.905Z,100.00
2019-05-05T05:09:34.030Z,100.00
2019-05-05T05:12:23.910Z,100.00
2019-05-05T05:15:14.722Z,100.00
2019-05-05T05:18:16.865Z,100.00
2019-05-05T05:21:08.707Z,100.00
2019-05-05T05:23:59.136Z,100.00
2019-05-05T05:26:49.592Z,99.11
2019-05-05T05:29:40.026Z,93.70
2019-05-05T05:32:30.682Z,93.09
2019-05-05T05:35:20.792Z,85.90
2019-05-05T05:38:11.151Z,85.80
2019-05-05T05:41:23.938Z,84.87
2019-05-05T05:44:21.377Z,84.87
2019-05-05T05:47:36.404Z,86.90
2019-05-05T05:50:33.925Z,88.21
2019-05-05T05:53:24.628Z,90.99
2019-05-05T05:56:16.029Z,93.47
2019-05-05T05:59:06.512Z,99.96
2019-05-05T06:02:08.993Z,100.00
2019-05-05T06:04:48.596Z,100.00
2019-05-05T06:07:38.885Z,100.00
2019-05-05T06:10:29.469Z,100.00
2019-05-05T06:13:20.016Z,100.00
2019-05-05T06:16:10.458Z,100.00
2019-05-05T06:19:03.500Z,98.31
2019-05-05T06:21:54.315Z,96.60
2019-05-05T06:24:44.967Z,95.81
2019-05-05T06:27:35.464Z,93.95
2019-05-05T06:30:25.645Z,90.48
2019-05-05T06:33:16.241Z,77.88
2019-05-05T06:36:06.744Z,64.07
2019-05-05T06:38:57.196Z,62.71
2019-05-05T06:42:09.576Z,61.35
2019-05-05T06:45:16.094Z,60.15
2019-05-05T06:48:06.355Z,63.16
2019-05-05T06:50:57.732Z,73.72
2019-05-05T06:53:48.300Z,77.05
2019-05-05T06:56:38.583Z,81.06
2019-05-05T06:59:29.120Z,81.75
2019-05-05T07:02:19.481Z,71.73
2019-05-05T07:05:09.654Z,65.46
2019-05-05T07:08:01.631Z,57.83
2019-05-05T07:10:54.743Z,52.81
2019-05-05T07:13:45.313Z,53.11
2019-05-05T07:16:36.571Z,49.24
2019-05-05T07:19:27.680Z,45.87
2019-05-05T07:22:19.848Z,47.76
2019-05-05T07:25:11.170Z,48.11
2019-05-05T07:28:04.218Z,52.28
2019-05-05T07:30:55.333Z,56.43
2019-05-05T07:33:46.650Z,62.15
2019-05-05T07:36:48.763Z,64.05
2019-05-05T07:39:39.194Z,71.17
2019-05-05T07:42:29.590Z,73.61
2019-05-05T07:45:22.967Z,74.37
2019-05-05T07:48:13.696Z,76.67
2019-05-05T07:51:05.261Z,78.16
2019-05-05T07:53:56.608Z,77.82
2019-05-05T07:56:47.511Z,76.24
2019-05-05T07:59:37.981Z,75.99
2019-05-05T08:02:28.412Z,71.18
2019-05-05T08:05:19.437Z,62.59
2019-05-05T08:08:10.647Z,60.80
2019-05-05T08:11:01.234Z,62.59
2019-05-05T08:13:54.747Z,61.53
2019-05-05T08:17:01.452Z,66.23
2019-05-05T08:19:58.593Z,71.10
2019-05-05T08:22:48.696Z,73.53
2019-05-05T08:25:54.134Z,75.44
2019-05-05T08:28:53.991Z,76.69
2019-05-05T08:31:53.663Z,76.65
2019-05-05T08:34:56.933Z,76.16
2019-05-05T08:37:35.956Z,66.66
2019-05-05T08:40:27.037Z,60.08
2019-05-05T08:43:18.137Z,49.49
2019-05-05T08:46:09.332Z,44.15
2019-05-05T08:49:00.567Z,42.22
2019-05-05T08:51:51.642Z,46.65
2019-05-05T08:54:44.468Z,45.04
2019-05-05T08:57:35.285Z,46.68
2019-05-05T09:00:26.374Z,48.38
2019-05-05T09:03:17.337Z,47.76
2019-05-05T09:06:08.113Z,60.30
2019-05-05T09:08:59.068Z,58.34
2019-05-05T09:11:50.209Z,63.30
2019-05-05T09:14:41.240Z,65.44
2019-05-05T09:17:33.592Z,66.78
2019-05-05T09:20:24.301Z,65.28
2019-05-05T09:23:15.006Z,70.16
2019-05-05T09:26:36.339Z,75.76
2019-05-05T09:29:34.733Z,73.99
2019-05-05T09:32:24.889Z,71.13
2019-05-05T09:35:15.134Z,70.90
2019-05-05T09:38:05.574Z,72.28
2019-05-05T09:40:56.069Z,75.41
2019-05-05T09:43:46.496Z,68.36
2019-05-05T09:46:39.572Z,74.03
2019-05-05T09:49:28.866Z,73.08
2019-05-05T09:52:19.435Z,70.80
2019-05-05T09:55:13.846Z,67.59
2019-05-05T09:58:04.490Z,65.19
2019-05-05T10:00:55.986Z,67.45
2019-05-05T10:03:46.463Z,72.28
2019-05-05T10:06:37.335Z,72.22
2019-05-05T10:09:27.999Z,68.74
2019-05-05T10:12:18.373Z,69.57
2019-05-05T10:15:09.067Z,70.07
2019-05-05T10:17:59.460Z,69.20
2019-05-05T10:20:50.004Z,69.69
2019-05-05T10:23:43.620Z,69.43
2019-05-05T10:26:35.119Z,72.60
2019-05-05T10:29:25.611Z,72.34
2019-05-05T10:32:16.305Z,72.21
2019-05-05T10:35:06.753Z,73.90
2019-05-05T10:37:57.096Z,74.05
2019-05-05T10:40:48.406Z,72.06
2019-05-05T10:43:38.800Z,73.55
2019-05-05T10:46:29.397Z,71.92
2019-05-05T10:49:21.084Z,68.38
2019-05-05T10:52:14.048Z,70.71
2019-05-05T10:55:04.241Z,70.49
2019-05-05T10:57:55.078Z,70.83
2019-05-05T11:00:57.275Z,69.08
2019-05-05T11:03:47.756Z,71.23
2019-05-05T11:06:38.328Z,70.67
2019-05-05T11:09:28.754Z,70.75
2019-05-05T11:12:19.352Z,67.64
2019-05-05T11:15:09.456Z,68.29
2019-05-05T11:17:59.953Z,68.88
2019-05-05T11:20:50.602Z,69.63
2019-05-05T11:23:41.303Z,69.60
2019-05-05T11:26:33.866Z,71.22
2019-05-05T11:29:24.189Z,72.35
2019-05-05T11:32:21.497Z,69.10
2019-05-05T11:35:13.891Z,69.78
2019-05-05T11:38:03.675Z,71.34
2019-05-05T11:40:54.811Z,73.54
2019-05-05T11:43:45.320Z,73.92
2019-05-05T11:46:35.962Z,74.34
2019-05-05T11:49:27.241Z,74.61
2019-05-05T11:52:17.708Z,74.42
2019-05-05T11:55:11.655Z,72.69
2019-05-05T11:58:00.567Z,73.45
2019-05-05T12:00:50.976Z,73.68
2019-05-05T12:03:41.442Z,73.06
2019-05-05T12:06:33.848Z,72.97
2019-05-05T12:09:29.784Z,73.79
2019-05-05T12:12:20.022Z,72.88
2019-05-05T12:15:10.470Z,72.66
2019-05-05T12:18:00.722Z,73.60
2019-05-05T12:20:51.164Z,72.66
2019-05-05T12:23:44.441Z,71.80
2019-05-05T12:26:54.164Z,73.12
2019-05-05T12:29:54.448Z,73.28
2019-05-05T12:32:44.871Z,70.31
2019-05-05T12:35:35.429Z,71.53
2019-05-05T12:38:25.969Z,68.47
2019-05-05T12:41:16.546Z,67.46
2019-05-05T12:44:08.497Z,67.75
2019-05-05T12:47:34.248Z,69.31
2019-05-05T12:50:24.937Z,67.94
2019-05-05T12:53:15.262Z,68.77
2019-05-05T12:56:05.924Z,63.84
2019-05-05T12:58:56.055Z,62.59
2019-05-05T13:01:46.752Z,64.81
2019-05-05T13:04:37.234Z,63.64
2019-05-05T13:07:28.116Z,66.03
2019-05-05T13:10:19.423Z,63.33
2019-05-05T13:13:10.170Z,64.34
2019-05-05T13:16:00.556Z,63.86
2019-05-05T13:18:51.119Z,64.09
2019-05-05T13:22:06.626Z,64.27
2019-05-05T13:25:21.981Z,65.72
2019-05-05T13:28:11.997Z,63.18
2019-05-05T13:31:04.610Z,66.03
2019-05-05T13:33:54.951Z,60.85
2019-05-05T13:36:48.527Z,61.05
2019-05-05T13:39:38.897Z,59.92
2019-05-05T13:42:30.160Z,59.63
2019-05-05T13:45:38.696Z,61.26
2019-05-05T13:48:29.502Z,64.14
2019-05-05T13:51:19.950Z,68.29
2019-05-05T13:54:10.723Z,67.09
2019-05-05T13:57:01.063Z,67.75
2019-05-05T13:59:51.373Z,68.28
2019-05-05T14:02:43.893Z,68.52
2019-05-05T14:05:34.500Z,69.54
2019-05-05T14:08:25.936Z,65.92
2019-05-05T14:11:16.661Z,65.14
2019-05-05T14:14:07.102Z,64.27
2019-05-05T14:16:57.683Z,63.94
2019-05-05T14:20:01.555Z,64.86
2019-05-05T14:22:39.942Z,65.34
2019-05-05T14:25:30.899Z,67.74
2019-05-05T14:28:23.639Z,68.82
2019-05-05T14:31:16.975Z,67.67
2019-05-05T14:34:15.853Z,67.11
2019-05-05T14:37:24.854Z,67.43
2019-05-05T14:40:15.316Z,67.09
2019-05-05T14:43:05.720Z,64.64
2019-05-05T14:45:56.417Z,67.90
2019-05-05T14:48:46.593Z,65.36
2019-05-05T14:51:36.928Z,63.39
2019-05-05T14:54:27.381Z,61.62
2019-05-05T14:57:18.704Z,59.94
2019-05-05T15:00:10.365Z,63.60
2019-05-05T15:03:03.686Z,67.84
2019-05-05T15:06:20.002Z,74.48
2019-05-05T15:09:27.573Z,81.27
2019-05-05T15:12:30.434Z,89.00
2019-05-05T15:15:23.620Z,89.67
2019-05-05T15:18:14.631Z,94.96
2019-05-05T15:21:05.062Z,98.31
2019-05-05T15:23:55.292Z,100.00
2019-05-05T15:26:51.957Z,100.00
2019-05-05T15:29:37.647Z,100.00
2019-05-05T15:32:27.904Z,100.00
2019-05-05T15:35:18.384Z,100.00
2019-05-05T15:38:08.648Z,100.00
2019-05-05T15:40:58.953Z,100.00
2019-05-05T15:43:49.235Z,100.00
2019-05-05T15:46:39.791Z,100.00
2019-05-05T15:49:30.410Z,100.00
2019-05-05T15:52:21.012Z,100.00
2019-05-05T15:55:11.297Z,100.00
2019-05-05T15:58:03.509Z,100.00
2019-05-05T16:00:55.024Z,100.00
2019-05-05T16:03:45.217Z,100.00
2019-05-05T16:06:35.678Z,100.00
2019-05-05T16:09:26.092Z,100.00
2019-05-05T16:12:16.552Z,100.00
2019-05-05T16:15:26.725Z,100.00
2019-05-05T16:18:24.706Z,100.00
2019-05-05T16:21:34.620Z,100.00
2019-05-05T16:24:31.392Z,100.00
2019-05-05T16:27:24.900Z,100.00
2019-05-05T16:30:17.069Z,100.00
2019-05-05T16:33:07.606Z,100.00
2019-05-05T16:35:58.091Z,100.00
2019-05-05T16:38:48.651Z,100.00
2019-05-05T16:41:39.333Z,100.00
2019-05-05T16:44:29.960Z,100.00
2019-05-05T16:47:20.887Z,100.00
2019-05-05T16:50:11.267Z,100.00
2019-05-05T16:53:04.366Z,100.00
2019-05-05T16:55:56.583Z,100.00
2019-05-05T16:58:47.297Z,100.00
2019-05-05T17:01:37.605Z,100.00
2019-05-05T17:04:30.352Z,100.00
2019-05-05T17:07:20.802Z,100.00
2019-05-05T17:10:11.108Z,100.00
2019-05-05T17:13:07.184Z,100.00
2019-05-05T17:16:15.269Z,100.00
2019-05-05T17:19:14.173Z,100.00
2019-05-05T17:22:35.682Z,100.00
2019-05-05T17:25:25.645Z,100.00
2019-05-05T17:28:16.366Z,100.00
2019-05-05T17:31:06.940Z,100.00
2019-05-05T17:33:57.287Z,100.00
2019-05-05T17:36:47.677Z,100.00
2019-05-05T17:39:43.790Z,100.00
2019-05-05T17:42:45.098Z,100.00
2019-05-05T17:45:55.078Z,100.00
2019-05-05T17:49:04.678Z,100.00
2019-05-05T17:52:00.310Z,100.00
2019-05-05T17:54:54.048Z,100.00
2019-05-05T17:57:45.445Z,100.00
2019-05-05T18:00:43.476Z,100.00
2019-05-05T18:03:34.076Z,100.00
2019-05-05T18:06:34.887Z,100.00
2019-05-05T18:09:35.227Z,100.00
2019-05-05T18:12:54.068Z,100.00
2019-05-05T18:15:54.334Z,100.00
2019-05-05T18:18:46.133Z,100.00
2019-05-05T18:21:36.661Z,100.00
2019-05-05T18:24:27.127Z,100.00
2019-05-05T18:27:18.072Z,100.00
2019-05-05T18:30:08.532Z,100.00
2019-05-05T18:32:58.998Z,100.00
2019-05-05T18:35:49.528Z,100.00
2019-05-05T18:38:40.147Z,100.00
2019-05-05T18:41:39.006Z,100.00
2019-05-05T18:44:35.977Z,100.00
2019-05-05T18:47:29.239Z,100.00
2019-05-05T18:50:19.554Z,100.00
2019-05-05T18:53:10.114Z,100.00
2019-05-05T18:56:00.645Z,100.00
2019-05-05T18:58:50.978Z,100.00
2019-05-05T19:01:48.646Z,100.00
2019-05-05T19:04:48.817Z,100.00
2019-05-05T19:07:55.234Z,100.00
2019-05-05T19:10:37.904Z,100.00
2019-05-05T19:13:28.548Z,100.00
2019-05-05T19:16:18.791Z,100.00
2019-05-05T19:19:09.512Z,100.00
2019-05-05T19:22:04.645Z,100.00
2019-05-05T19:24:55.242Z,100.00
2019-05-05T19:27:46.421Z,100.00
2019-05-05T19:30:36.725Z,100.00
2019-05-05T19:33:27.179Z,100.00
2019-05-05T19:36:17.714Z,100.00
2019-05-05T19:39:08.189Z,100.00
2019-05-05T19:42:00.598Z,100.00
2019-05-05T19:44:50.978Z,100.00
2019-05-05T19:47:43.885Z,100.00
2019-05-05T19:50:40.108Z,100.00
2019-05-05T19:53:30.362Z,100.00
2019-05-05T19:56:21.841Z,100.00
2019-05-05T19:59:13.722Z,100.00
2019-05-05T20:02:04.254Z,100.00
2019-05-05T20:04:54.970Z,100.00
2019-05-05T20:07:45.547Z,100.00
2019-05-05T20:10:35.816Z,100.00
2019-05-05T20:13:26.321Z,100.00
2019-05-05T20:16:26.541Z,100.00
2019-05-05T20:19:16.653Z,100.00
2019-05-05T20:22:08.065Z,100.00
2019-05-05T20:24:58.545Z,100.00
2019-05-05T20:27:48.687Z,100.00
2019-05-05T20:30:38.852Z,100.00
2019-05-05T20:33:38.271Z,100.00
2019-05-05T20:36:28.938Z,100.00
2019-05-05T20:39:19.449Z,100.00
2019-05-05T20:42:09.589Z,100.00
2019-05-05T20:44:59.961Z,100.00
2019-05-05T20:47:50.195Z,100.00
2019-05-05T20:50:41.056Z,100.00
2019-05-05T20:53:31.554Z,100.00
2019-05-05T20:56:22.253Z,100.00
2019-05-05T20:59:26.814Z,100.00
2019-05-05T21:02:04.745Z,100.00
2019-05-05T21:04:55.511Z,100.00
2019-05-05T21:07:46.988Z,100.00
2019-05-05T21:10:37.613Z,100.00
2019-05-05T21:13:27.832Z,100.00
2019-05-05T21:16:18.268Z,100.00
2019-05-05T21:19:08.570Z,100.00
2019-05-05T21:22:00.965Z,100.00
2019-05-05T21:24:51.308Z,100.00
2019-05-05T21:27:43.590Z,100.00
2019-05-05T21:30:34.257Z,100.00
2019-05-05T21:33:24.473Z,100.00
2019-05-05T21:36:14.863Z,100.00
2019-05-05T21:39:06.713Z,100.00
2019-05-05T21:41:58.317Z,100.00
2019-05-05T21:44:48.609Z,100.00
2019-05-05T21:47:39.584Z,100.00
2019-05-05T21:50:35.670Z,100.00
2019-05-05T21:53:36.411Z,100.00
2019-05-05T21:56:44.600Z,100.00
2019-05-05T21:59:35.055Z,100.00
2019-05-05T22:02:25.646Z,100.00
2019-05-05T22:05:15.917Z,100.00
2019-05-05T22:08:06.324Z,100.00
2019-05-05T22:10:56.659Z,100.00
2019-05-05T22:13:46.876Z,100.00
2019-05-05T22:16:37.499Z,100.00
2019-05-05T22:19:29.587Z,100.00
2019-05-05T22:22:21.486Z,100.00
2019-05-05T22:25:11.452Z,100.00
2019-05-05T22:28:04.142Z,100.00
2019-05-05T22:30:55.557Z,100.00
2019-05-05T22:33:46.034Z,100.00
2019-05-05T22:36:36.530Z,100.00
2019-05-05T22:39:27.747Z,100.00
2019-05-05T22:42:18.368Z,100.00
2019-05-05T22:45:09.367Z,100.00
2019-05-05T22:47:59.966Z,100.00
2019-05-05T22:50:50.513Z,100.00
2019-05-05T22:53:40.943Z,100.00
2019-05-05T22:56:33.744Z,100.00
2019-05-05T22:59:26.146Z,100.00
2019-05-05T23:02:17.760Z,100.00
2019-05-05T23:05:25.119Z,100.00
2019-05-05T23:08:18.398Z,100.00
2019-05-05T23:11:07.463Z,100.00
2019-05-05T23:14:16.843Z,100.00
2019-05-05T23:17:34.025Z,100.00
2019-05-05T23:20:54.697Z,100.00
2019-05-05T23:24:14.179Z,100.00
2019-05-05T23:27:04.814Z,100.00
2019-05-05T23:29:55.211Z,100.00
2019-05-05T23:32:45.962Z,100.00
2019-05-05T23:35:36.382Z,100.00
2019-05-05T23:38:26.829Z,100.00
2019-05-05T23:41:17.324Z,100.00
2019-05-05T23:44:07.904Z,100.00
2019-05-05T23:46:58.285Z,100.00
2019-05-05T23:49:48.810Z,100.00
2019-05-05T23:52:39.112Z,100.00
2019-05-05T23:55:29.692Z,100.00
2019-05-05T23:58:21.074Z,100.00
